Barbados Meteorological Services
Auto gathered TAF list
Powered by Apparatus software
For Flight TOM109
Contact Number 1-(246)-535-0021/2/3/4/5/6
WEB: http://www.barbadosweather.org

**********************************************

2018/04/25 18:45
TAF TBPB 251700Z 2518/2618 14015KT 9999 SCT020 PROB30
TEMPO 2606/2609 SHRA BKN015


**********************************************
2018/04/25 18:03
TAF TAF TAPA 251700Z 2518/2618 11011KT 9999 SCT018 SCT035 PROB40
TEMPO 2518/2604 SHRA


**********************************************
2018/04/25 18:18
TAF LPPR 251700Z 2518/2618 33017KT CAVOK
BECMG 2519/2522 36012KT
BECMG 2603/2605 36005KT
BECMG 2612/2615 33012KT


**********************************************
2018/04/25 18:18
TAF LPPD 251700Z 2518/2618 23008KT 9999 SCT020 SCT035
TEMPO 2520/2524 BKN015
BECMG 2520/2522 VRB05KT
BECMG 2609/2612 23010KT


**********************************************
2018/04/25 18:18
TAF LPLA 251705Z 2518/2618 21010KT 9999 SCT025
BECMG 2606/2609 25010KT
TEMPO 2614/2618 7000 -RA SCT008 BKN014
BECMG 2614/2617 33010KT


**********************************************


**********************************************
2018/04/25 18:21
TAF LPAZ 251700Z 2518/2624 26005KT 9999 SCT015 BKN030
TEMPO 2518/2521 VRB05KT
BECMG 2521/2524 35008KT


**********************************************
2018/04/25 18:27
TAF LEVT 251700Z 2518/2618 01009KT 9999 BKN020 TX14/2614Z TN08/2605Z PROB30
TEMPO 2518/2606 3000 -RADZ BR BKN010


**********************************************
2018/04/25 18:27
TAF LEMD 251700Z 2518/2624 05007KT CAVOK TX26/2615Z TN10/2606Z
TEMPO 2518/2520 FEW045TCU PROB30 2518/2519 TS SHRA SCT035CB


**********************************************
2018/04/25 18:27
TAF ELLX 251700Z 2518/2624 26010KT CAVOK
TEMPO 2601/2607 9999 BKN020
BECMG 2607/2609 26012G25KT 9999 SCT025
BECMG 2615/2617 26007KT


**********************************************
2018/04/25 18:16
TAF EGPK 251701Z 2518/2618 23012KT 9999 FEW015 SCT025
TEMPO 2518/2615 4000 SHRA BKN014CB
TEMPO 2600/2615 24018G30KT PROB30
TEMPO 2606/2612 +SHRA


**********************************************
2018/04/25 18:16
TAF EGLL 251700Z 2518/2624 25012KT 9999 SCT040
TEMPO 2518/2521 25015G25KT PROB40
TEMPO 2610/2616 26015G25KT


**********************************************
2018/04/25 18:16
TAF EGKK 251707Z 2518/2624 25010KT 9999 SCT030
TEMPO 2518/2520 26017G27KT 7000 SHRA PROB30
TEMPO 2518/2520 4000 +SHRA PROB30
TEMPO 2612/2620 7000 SHRA
BECMG 2621/2624 18005KT


**********************************************
2018/04/25 18:15
TAF EGFF 251702Z 2518/2618 26020G32KT 9999 FEW025 PROB30
TEMPO 2518/2618 7000 SHRA
BECMG 2521/2524 27014KT PROB30
TEMPO 2600/2614 27017G27KT


**********************************************
2018/04/25 18:15
TAF EGCC 251655Z 2518/2624 25012KT 9999 FEW020 SCT030
TEMPO 2518/2520 26016G26KT 7000 SHRA PROB30
TEMPO 2518/2519 3000 +SHRA TSGS BKN014CB PROB30
TEMPO 2520/2523 7000 SHRA
TEMPO 2608/2618 26015G26KT 7000 SHRA


**********************************************
2018/04/25 18:27
TAF EDDM 251700Z 2518/2624 28007KT 9999 FEW045
BECMG 2609/2611 26012KT
TEMPO 2611/2616 28015G25KT


**********************************************
2018/04/25 18:29
TAF EDDF 251700Z 2518/2624 24013KT 9999 SCT045
BECMG 2518/2520 24008KT PROB30
TEMPO 2518/2521 SHRA BKN030TCU
BECMG 2607/2609 26015G25KT PROB30
TEMPO 2609/2615 SHRA SCT040TCU
BECMG 2617/2619 23008KT
BECMG 2619/2621 VRB03KT


**********************************************
2018/04/25 18:27
TAF TAF EBBR 251720Z 2518/2624 26014KT 9999 SCT048 PROB40
TEMPO 2520/2601 4000 SHRA
BECMG 2622/2624 20005KT


**********************************************